createdAt,value
2019-02-16T00:02:22.141Z,102919.87
2019-02-16T00:04:53.047Z,102917.25
2019-02-16T00:07:23.990Z,102912.88
2019-02-16T00:09:54.886Z,102920.72
2019-02-16T00:12:25.841Z,102915.51
2019-02-16T00:14:56.747Z,102915.51
2019-02-16T00:17:27.720Z,102916.38
2019-02-16T00:19:58.644Z,102918.14
2019-02-16T00:22:29.566Z,102915.08
2019-02-16T00:25:01.064Z,102909.84
2019-02-16T00:27:32.027Z,102904.17
2019-02-16T00:30:02.961Z,102901.55
2019-02-16T00:32:33.958Z,102903.31
2019-02-16T00:35:05.766Z,102900.24
2019-02-16T00:37:36.707Z,102901.56
2019-02-16T00:40:08.910Z,102904.60
2019-02-16T00:42:39.870Z,102901.12
2019-02-16T00:45:11.889Z,102895.89
2019-02-16T00:47:42.799Z,102895.02
2019-02-16T00:50:13.702Z,102881.07
2019-02-16T00:52:46.378Z,102881.94
2019-02-16T00:55:24.163Z,102878.45
2019-02-16T00:57:55.241Z,102877.13
2019-02-16T01:00:26.307Z,102872.77
2019-02-16T01:02:57.206Z,102867.09
2019-02-16T01:05:28.120Z,102869.70
2019-02-16T01:07:59.053Z,102862.73
2019-02-16T01:10:31.809Z,102860.98
2019-02-16T01:13:05.881Z,102861.88
2019-02-16T01:15:44.261Z,102856.21
2019-02-16T01:18:15.186Z,102854.46
2019-02-16T01:20:46.091Z,102854.90
2019-02-16T01:23:17.016Z,102852.72
2019-02-16T01:25:48.090Z,102856.20
2019-02-16T01:28:19.145Z,102849.66
2019-02-16T01:30:50.048Z,102843.98
2019-02-16T01:33:22.455Z,102838.75
2019-02-16T01:35:53.368Z,102838.73
2019-02-16T01:38:24.301Z,102831.76
2019-02-16T01:40:55.208Z,102829.13
2019-02-16T01:43:26.226Z,102823.06
2019-02-16T01:45:57.131Z,102823.05
2019-02-16T01:48:28.064Z,102823.06
2019-02-16T01:50:58.973Z,102818.70
2019-02-16T01:53:29.912Z,102824.34
2019-02-16T01:56:00.803Z,102815.22
2019-02-16T01:58:31.774Z,102813.92
2019-02-16T02:01:03.298Z,102809.11
2019-02-16T02:03:34.968Z,102813.03
2019-02-16T02:06:08.569Z,102805.17
2019-02-16T02:08:39.663Z,102803.87
2019-02-16T02:11:13.366Z,102802.15
2019-02-16T02:13:44.334Z,102796.92
2019-02-16T02:16:16.674Z,102795.60
2019-02-16T02:18:47.682Z,102792.55
2019-02-16T02:21:18.575Z,102784.74
2019-02-16T02:23:49.507Z,102777.36
2019-02-16T02:26:20.410Z,102778.65
2019-02-16T02:28:51.373Z,102779.95
2019-02-16T02:31:23.721Z,102771.26
2019-02-16T02:33:54.656Z,102778.64
2019-02-16T02:36:25.559Z,102774.30
2019-02-16T02:38:56.501Z,102782.14
2019-02-16T02:41:27.401Z,102778.66
2019-02-16T02:43:58.587Z,102776.91
2019-02-16T02:46:29.499Z,102773.86
2019-02-16T02:49:00.428Z,102764.70
2019-02-16T02:51:31.380Z,102770.78
2019-02-16T02:54:02.363Z,102768.16
2019-02-16T02:56:36.426Z,102766.44
2019-02-16T02:59:09.821Z,102762.08
2019-02-16T03:01:40.715Z,102761.61
2019-02-16T03:04:11.657Z,102755.07
2019-02-16T03:06:42.561Z,102760.30
2019-02-16T03:09:13.492Z,102758.53
2019-02-16T03:11:44.399Z,102757.23
2019-02-16T03:14:15.351Z,102755.48
2019-02-16T03:16:46.256Z,102757.64
2019-02-16T03:19:21.453Z,102748.05
2019-02-16T03:22:00.599Z,102747.19
2019-02-16T03:24:25.003Z,102741.10
2019-02-16T03:27:19.221Z,102741.52
2019-02-16T03:30:26.512Z,102742.82
2019-02-16T03:33:18.232Z,102746.75
2019-02-16T03:36:03.904Z,102745.42
2019-02-16T03:38:43.247Z,102744.11
2019-02-16T03:41:14.263Z,102744.52
2019-02-16T03:43:45.208Z,102737.98
2019-02-16T03:46:16.525Z,102736.69
2019-02-16T03:48:47.434Z,102731.47
2019-02-16T03:51:18.368Z,102729.73
2019-02-16T03:53:49.286Z,102734.94
2019-02-16T03:56:20.210Z,102735.82
2019-02-16T03:58:51.123Z,102725.78
2019-02-16T04:01:22.097Z,102726.67
2019-02-16T04:03:57.541Z,102726.67
2019-02-16T04:06:28.477Z,102720.55
2019-02-16T04:08:59.379Z,102720.10
2019-02-16T04:11:30.336Z,102714.89
2019-02-16T04:14:01.223Z,102715.77
2019-02-16T04:16:32.275Z,102714.90
2019-02-16T04:19:03.197Z,102710.95
2019-02-16T04:21:34.129Z,102702.70
2019-02-16T04:24:05.097Z,102701.40
2019-02-16T04:26:36.028Z,102699.24
2019-02-16T04:29:06.931Z,102697.91
2019-02-16T04:31:37.912Z,102696.19
2019-02-16T04:34:08.831Z,102693.16
2019-02-16T04:36:39.754Z,102692.25
2019-02-16T04:39:10.659Z,102688.77
2019-02-16T04:41:41.608Z,102685.28
2019-02-16T04:44:12.512Z,102677.46
2019-02-16T04:46:43.473Z,102678.77
2019-02-16T04:49:14.366Z,102674.41
2019-02-16T04:51:48.294Z,102676.59
2019-02-16T04:54:19.367Z,102668.74
2019-02-16T04:56:50.295Z,102673.09
2019-02-16T04:59:21.197Z,102669.61
2019-02-16T05:01:54.806Z,102673.06
2019-02-16T05:04:25.709Z,102665.25
2019-02-16T05:06:56.654Z,102665.22
2019-02-16T05:09:27.542Z,102654.80
2019-02-16T05:11:58.476Z,102655.66
2019-02-16T05:14:29.371Z,102655.20
2019-02-16T05:17:00.357Z,102648.69
2019-02-16T05:19:31.310Z,102649.58
2019-02-16T05:22:02.573Z,102652.15
2019-02-16T05:24:33.447Z,102650.00
2019-02-16T05:27:06.183Z,102656.09
2019-02-16T05:29:37.097Z,102660.42
2019-02-16T05:32:08.083Z,102659.55
2019-02-16T05:34:38.993Z,102658.24
2019-02-16T05:37:09.921Z,102656.94
2019-02-16T05:39:40.896Z,102650.42
2019-02-16T05:42:11.902Z,102652.17
2019-02-16T05:44:42.877Z,102643.05
2019-02-16T05:47:15.781Z,102641.73
2019-02-16T05:49:46.691Z,102643.06
2019-02-16T05:52:17.679Z,102644.37
2019-02-16T05:54:48.597Z,102642.22
2019-02-16T05:57:19.526Z,102633.96
2019-02-16T05:59:50.447Z,102633.52
2019-02-16T06:02:21.729Z,102630.95
2019-02-16T06:04:52.625Z,102632.23
2019-02-16T06:07:23.559Z,102629.66
2019-02-16T06:09:54.459Z,102629.20
2019-02-16T06:12:25.389Z,102627.02
2019-02-16T06:14:56.304Z,102624.87
2019-02-16T06:17:27.294Z,102620.08
2019-02-16T06:19:58.198Z,102620.95
2019-02-16T06:22:29.136Z,102615.28
2019-02-16T06:25:00.025Z,102614.86
2019-02-16T06:27:30.965Z,102613.98
2019-02-16T06:30:01.859Z,102612.27
2019-02-16T06:32:32.817Z,102615.76
2019-02-16T06:35:08.472Z,102611.86
2019-02-16T06:37:39.400Z,102611.45
2019-02-16T06:40:10.300Z,102610.61
2019-02-16T06:42:41.237Z,102601.94
2019-02-16T06:45:12.225Z,102599.76
2019-02-16T06:47:44.287Z,102605.38
2019-02-16T06:50:19.653Z,102601.44
2019-02-16T06:52:50.573Z,102603.13
2019-02-16T06:55:22.154Z,102597.77
2019-02-16T06:57:53.089Z,102591.08
2019-02-16T07:00:25.568Z,102589.20
2019-02-16T07:02:56.966Z,102581.10
2019-02-16T07:05:28.955Z,102584.80
2019-02-16T07:07:59.977Z,102584.11
2019-02-16T07:10:32.391Z,102583.83
2019-02-16T07:13:03.337Z,102577.36
2019-02-16T07:15:34.231Z,102579.67
2019-02-16T07:18:15.663Z,102579.27
2019-02-16T07:20:49.429Z,102574.12
2019-02-16T07:23:22.456Z,102575.89
2019-02-16T07:25:52.960Z,102576.80
2019-02-16T07:28:40.066Z,102570.14
2019-02-16T07:31:10.971Z,102568.36
2019-02-16T07:33:41.958Z,102570.44
2019-02-16T07:36:15.962Z,102569.45
2019-02-16T07:38:46.894Z,102560.95
2019-02-16T07:41:17.802Z,102557.25
2019-02-16T07:43:53.087Z,102557.41
2019-02-16T07:46:28.708Z,102552.38
2019-02-16T07:49:04.164Z,102550.80
2019-02-16T07:51:39.736Z,102548.78
2019-02-16T07:54:15.083Z,102546.77
2019-02-16T07:56:53.403Z,102544.41
2019-02-16T07:59:28.995Z,102535.91
2019-02-16T08:02:01.742Z,102536.23
2019-02-16T08:04:50.792Z,102536.89
2019-02-16T08:07:29.267Z,102525.84
2019-02-16T08:10:10.605Z,102531.72
2019-02-16T08:12:55.363Z,102516.27
2019-02-16T08:15:44.452Z,102518.77
2019-02-16T08:18:25.925Z,102510.34
2019-02-16T08:21:10.586Z,102500.67
2019-02-16T08:23:51.922Z,102503.59
2019-02-16T08:26:36.612Z,102496.84
2019-02-16T08:29:25.231Z,102501.60
2019-02-16T08:32:00.768Z,102494.91
2019-02-16T08:34:42.343Z,102503.25
2019-02-16T08:37:18.068Z,102496.25
2019-02-16T08:39:53.328Z,102496.89
2019-02-16T08:42:41.179Z,102487.75
2019-02-16T08:45:31.794Z,102488.28
2019-02-16T08:48:22.889Z,102469.80
2019-02-16T08:50:55.452Z,102471.12
2019-02-16T08:53:31.434Z,102467.55
2019-02-16T08:56:03.982Z,102469.26
2019-02-16T08:58:48.476Z,102470.92
2019-02-16T09:01:39.466Z,102471.80
2019-02-16T09:04:17.827Z,102469.14
2019-02-16T09:06:59.030Z,102477.09
2019-02-16T09:09:50.147Z,102475.58
2019-02-16T09:12:35.452Z,102477.61
2019-02-16T09:15:19.728Z,102465.56
2019-02-16T09:17:54.999Z,102459.92
2019-02-16T09:20:36.520Z,102455.62
2019-02-16T09:23:09.081Z,102453.22
2019-02-16T09:25:47.772Z,102449.33
2019-02-16T09:28:20.326Z,102456.55
2019-02-16T09:31:09.058Z,102448.33
2019-02-16T09:33:57.967Z,102451.23
2019-02-16T09:36:46.906Z,102452.69
2019-02-16T09:39:31.655Z,102442.77
2019-02-16T09:42:04.261Z,102445.14
2019-02-16T09:44:39.754Z,102428.15
2019-02-16T09:47:28.371Z,102425.50
2019-02-16T09:50:06.949Z,102415.42
2019-02-16T09:52:39.523Z,102410.91
2019-02-16T09:55:12.052Z,102406.27
2019-02-16T09:58:02.779Z,102409.37
2019-02-16T10:00:39.115Z,102408.25
2019-02-16T10:03:11.667Z,102392.87
2019-02-16T10:05:44.208Z,102398.51
2019-02-16T10:08:22.784Z,102391.80
2019-02-16T10:11:04.059Z,102393.91
2019-02-16T10:13:42.553Z,102391.34
2019-02-16T10:16:31.372Z,102391.88
2019-02-16T10:19:03.933Z,102394.36
2019-02-16T10:21:48.432Z,102385.95
2019-02-16T10:24:27.274Z,102388.06
2019-02-16T10:27:05.590Z,102384.36
2019-02-16T10:29:47.214Z,102375.77
2019-02-16T10:32:22.543Z,102369.88
2019-02-16T10:34:55.105Z,102371.31
2019-02-16T10:37:33.687Z,102355.39
2019-02-16T10:40:16.278Z,102354.84
2019-02-16T10:43:04.043Z,102354.95
2019-02-16T10:45:36.814Z,102347.23
2019-02-16T10:48:12.038Z,102346.31
2019-02-16T10:50:44.616Z,102338.59
2019-02-16T10:53:17.168Z,102336.72
2019-02-16T10:55:51.210Z,102328.16
2019-02-16T10:58:23.744Z,102331.73
2019-02-16T11:01:02.435Z,102325.75
2019-02-16T11:03:40.713Z,102319.89
2019-02-16T11:06:19.131Z,102308.66
2019-02-16T11:08:52.480Z,102320.94
2019-02-16T11:11:33.979Z,102319.64
2019-02-16T11:14:06.510Z,102315.11
2019-02-16T11:16:41.812Z,102313.95
2019-02-16T11:19:22.881Z,102306.36
2019-02-16T11:21:55.444Z,102306.16
2019-02-16T11:24:40.311Z,102308.18
2019-02-16T11:27:12.971Z,102305.14
2019-02-16T11:30:01.764Z,102298.88
2019-02-16T11:32:34.352Z,102292.48
2019-02-16T11:35:07.791Z,102295.98
2019-02-16T11:37:40.363Z,102300.84
2019-02-16T11:40:15.864Z,102290.84
2019-02-16T11:42:51.390Z,102293.55
2019-02-16T11:45:30.021Z,102282.78
2019-02-16T11:48:02.617Z,102279.56
2019-02-16T11:50:47.267Z,102283.23
2019-02-16T11:53:38.100Z,102276.38
2019-02-16T11:56:13.580Z,102269.03
2019-02-16T11:59:02.930Z,102274.80
2019-02-16T12:01:41.429Z,102269.58
2019-02-16T12:04:17.183Z,102267.79
2019-02-16T12:06:55.907Z,102252.30
2019-02-16T12:09:36.267Z,102256.66
2019-02-16T12:12:21.266Z,102253.63
2019-02-16T12:14:56.535Z,102252.67
2019-02-16T12:17:37.966Z,102245.57
2019-02-16T12:20:13.280Z,102247.77
2019-02-16T12:22:45.826Z,102245.88
2019-02-16T12:25:36.648Z,102237.59
2019-02-16T12:28:25.287Z,102236.58
2019-02-16T12:31:00.838Z,102234.02
2019-02-16T12:33:39.144Z,102231.82
2019-02-16T12:36:30.046Z,102231.41
2019-02-16T12:39:04.750Z,102227.73
2019-02-16T12:41:36.866Z,102226.81
2019-02-16T12:44:28.563Z,102220.02
2019-02-16T12:47:12.932Z,102231.34
2019-02-16T12:49:54.269Z,102216.16
2019-02-16T12:52:41.868Z,102196.63
2019-02-16T12:55:17.598Z,102192.70
2019-02-16T12:57:55.666Z,102200.52
2019-02-16T13:00:40.198Z,102182.53
2019-02-16T13:03:24.451Z,102187.39
2019-02-16T13:06:09.198Z,102180.73
2019-02-16T13:08:47.960Z,102175.42
2019-02-16T13:11:23.156Z,102170.11
2019-02-16T13:14:13.827Z,102178.23
2019-02-16T13:17:02.691Z,102170.32
2019-02-16T13:19:38.384Z,102174.71
2019-02-16T13:22:21.445Z,102169.92
2019-02-16T13:24:55.500Z,102169.08
2019-02-16T13:27:36.837Z,102161.48
2019-02-16T13:30:19.317Z,102163.67
2019-02-16T13:33:08.082Z,102152.27
2019-02-16T13:35:39.873Z,102154.52
2019-02-16T13:38:21.163Z,102153.29
2019-02-16T13:40:54.833Z,102151.66
2019-02-16T13:43:36.517Z,102153.45
2019-02-16T13:46:24.017Z,102144.80
2019-02-16T13:48:56.545Z,102134.16
2019-02-16T13:51:45.167Z,102123.68
2019-02-16T13:54:17.702Z,102125.94
2019-02-16T13:57:05.562Z,102124.03
2019-02-16T13:59:48.238Z,102120.97
2019-02-16T14:02:29.580Z,102124.18
2019-02-16T14:05:02.122Z,102113.77
2019-02-16T14:07:40.672Z,102094.80
2019-02-16T14:10:28.184Z,102086.81
2019-02-16T14:13:15.704Z,102090.41
2019-02-16T14:15:54.401Z,102083.66
2019-02-16T14:18:27.859Z,102082.03
2019-02-16T14:20:57.926Z,102076.91
2019-02-16T14:23:28.878Z,102069.48
2019-02-16T14:25:59.776Z,102065.66
2019-02-16T14:28:33.675Z,102081.61
2019-02-16T14:31:04.578Z,102067.09
2019-02-16T14:33:35.503Z,102064.27
2019-02-16T14:36:07.940Z,102050.78
2019-02-16T14:38:40.514Z,102052.63
2019-02-16T14:41:14.411Z,102056.80
2019-02-16T14:43:49.778Z,102052.36
2019-02-16T14:46:20.696Z,102046.67
2019-02-16T14:48:51.638Z,102044.95
2019-02-16T14:51:22.555Z,102051.34
2019-02-16T14:53:53.491Z,102048.38
2019-02-16T14:56:24.397Z,102043.67
2019-02-16T14:58:55.359Z,102034.26
2019-02-16T15:01:26.268Z,102039.17
2019-02-16T15:03:57.211Z,102030.12
2019-02-16T15:06:31.106Z,102036.14
2019-02-16T15:09:02.038Z,102035.45
2019-02-16T15:11:32.932Z,102026.41
2019-02-16T15:14:03.887Z,102027.48
2019-02-16T15:16:34.808Z,102033.59
2019-02-16T15:19:05.743Z,102040.31
2019-02-16T15:21:36.656Z,102034.59
2019-02-16T15:24:07.774Z,102044.98
2019-02-16T15:26:38.694Z,102046.47
2019-02-16T15:29:09.647Z,102051.32
2019-02-16T15:31:42.204Z,102053.26
2019-02-16T15:34:13.144Z,102058.02
2019-02-16T15:36:44.064Z,102050.90
2019-02-16T15:39:15.025Z,102053.64
2019-02-16T15:41:45.923Z,102048.48
2019-02-16T15:44:16.895Z,102052.59
2019-02-16T15:46:47.811Z,102059.72
2019-02-16T15:49:18.741Z,102062.70
2019-02-16T15:51:49.656Z,102060.16
2019-02-16T15:54:23.281Z,102065.52
2019-02-16T15:56:54.198Z,102059.00
2019-02-16T15:59:25.221Z,102066.23
2019-02-16T16:01:56.128Z,102073.23
2019-02-16T16:04:27.116Z,102072.70
2019-02-16T16:06:58.022Z,102081.06
2019-02-16T16:09:45.948Z,102080.52
2019-02-16T16:12:24.399Z,102086.23
2019-02-16T16:15:14.377Z,102082.33
2019-02-16T16:17:49.915Z,102088.14
2019-02-16T16:20:32.365Z,102086.09
2019-02-16T16:23:07.539Z,102088.30
2019-02-16T16:25:40.134Z,102089.21
2019-02-16T16:28:21.446Z,102092.73
2019-02-16T16:30:54.047Z,102094.88
2019-02-16T16:33:35.624Z,102092.80
2019-02-16T16:36:10.907Z,102094.07
2019-02-16T16:38:43.463Z,102091.79
2019-02-16T16:41:18.800Z,102082.45
2019-02-16T16:44:03.537Z,102081.42
2019-02-16T16:46:36.134Z,102077.29
2019-02-16T16:49:14.422Z,102075.52
2019-02-16T16:51:51.064Z,102076.67
2019-02-16T16:54:23.627Z,102070.28
2019-02-16T16:56:59.177Z,102075.39
2019-02-16T16:59:37.441Z,102072.91
2019-02-16T17:02:28.080Z,102077.46
2019-02-16T17:05:00.652Z,102080.34
2019-02-16T17:07:33.225Z,102086.41
2019-02-16T17:10:15.438Z,102079.14
2019-02-16T17:13:04.333Z,102075.83
2019-02-16T17:15:37.814Z,102082.20
2019-02-16T17:18:13.167Z,102077.02
2019-02-16T17:20:48.525Z,102078.09
2019-02-16T17:23:40.310Z,102070.56
2019-02-16T17:26:15.667Z,102076.45
2019-02-16T17:28:51.392Z,102075.28
2019-02-16T17:31:23.942Z,102075.44
2019-02-16T17:34:14.673Z,102081.32
2019-02-16T17:36:59.262Z,102079.23
2019-02-16T17:39:48.095Z,102075.05
2019-02-16T17:42:35.674Z,102080.41
2019-02-16T17:45:27.393Z,102075.73
2019-02-16T17:48:16.034Z,102079.39
2019-02-16T17:50:54.623Z,102079.99
2019-02-16T17:53:27.170Z,102075.23
2019-02-16T17:55:59.747Z,102072.30
2019-02-16T17:58:32.290Z,102073.62
2019-02-16T18:01:10.645Z,102075.41
2019-02-16T18:03:59.817Z,102080.35
2019-02-16T18:06:35.452Z,102075.98
2019-02-16T18:09:08.400Z,102071.25
2019-02-16T18:11:42.474Z,102068.23
2019-02-16T18:14:15.035Z,102066.48
2019-02-16T18:16:47.607Z,102063.05
2019-02-16T18:19:26.118Z,102064.36
2019-02-16T18:22:13.942Z,102071.88
2019-02-16T18:24:46.492Z,102071.96
2019-02-16T18:27:21.756Z,102078.25
2019-02-16T18:29:57.277Z,102080.88
2019-02-16T18:32:45.950Z,102076.42
2019-02-16T18:35:23.911Z,102065.32
2019-02-16T18:37:55.861Z,102068.73
2019-02-16T18:40:31.240Z,102073.58
2019-02-16T18:43:15.816Z,102076.58
2019-02-16T18:45:48.355Z,102073.80
2019-02-16T18:48:39.696Z,102083.02
2019-02-16T18:51:28.327Z,102082.93
2019-02-16T18:54:17.355Z,102079.48
2019-02-16T18:56:49.911Z,102074.60
2019-02-16T18:59:25.446Z,102080.74
2019-02-16T19:02:07.230Z,102077.66
2019-02-16T19:04:42.655Z,102071.45
2019-02-16T19:07:24.182Z,102067.50
2019-02-16T19:10:02.825Z,102073.62
2019-02-16T19:12:35.350Z,102065.29
2019-02-16T19:15:27.990Z,102067.50
2019-02-16T19:18:03.262Z,102066.61
2019-02-16T19:20:35.808Z,102061.05
2019-02-16T19:23:08.359Z,102060.53
2019-02-16T19:25:47.100Z,102062.66
2019-02-16T19:28:19.652Z,102052.98
2019-02-16T19:30:54.950Z,102064.42
2019-02-16T19:33:30.207Z,102050.35
2019-02-16T19:36:07.333Z,102049.06
2019-02-16T19:38:50.647Z,102050.50
2019-02-16T19:41:26.043Z,102057.90
2019-02-16T19:44:16.793Z,102047.36
2019-02-16T19:47:01.654Z,102056.48
2019-02-16T19:49:37.154Z,102045.47
2019-02-16T19:52:25.968Z,102050.20
2019-02-16T19:55:14.771Z,102051.91
2019-02-16T19:57:53.195Z,102051.00
2019-02-16T20:00:43.977Z,102046.19
2019-02-16T20:03:28.403Z,102046.54
2019-02-16T20:06:10.112Z,102043.39
2019-02-16T20:08:48.595Z,102039.44
2019-02-16T20:11:23.895Z,102034.23
2019-02-16T20:14:08.567Z,102030.58
2019-02-16T20:16:41.113Z,102030.64
2019-02-16T20:19:16.647Z,102039.08
2019-02-16T20:22:01.044Z,102034.59
2019-02-16T20:24:36.729Z,102028.30
2019-02-16T20:27:24.534Z,102039.70
2019-02-16T20:29:57.114Z,102028.65
2019-02-16T20:32:29.655Z,102027.91
2019-02-16T20:35:02.243Z,102041.83
2019-02-16T20:37:39.371Z,102033.86
2019-02-16T20:40:27.083Z,102049.28
2019-02-16T20:43:17.631Z,102041.92
2019-02-16T20:45:56.220Z,102039.26
2019-02-16T20:48:45.117Z,102031.38
2019-02-16T20:51:29.647Z,102029.67
2019-02-16T20:54:05.260Z,102032.31
2019-02-16T20:56:37.900Z,102032.31
2019-02-16T20:59:19.700Z,102031.95
2019-02-16T21:01:52.288Z,102029.77
2019-02-16T21:04:33.828Z,102029.83
2019-02-16T21:07:12.379Z,102033.72
2019-02-16T21:09:44.929Z,102042.08
2019-02-16T21:12:17.493Z,102040.91
2019-02-16T21:14:56.185Z,102034.45
2019-02-16T21:17:35.428Z,102040.11
2019-02-16T21:20:24.599Z,102030.52
2019-02-16T21:23:13.480Z,102052.53
2019-02-16T21:25:46.063Z,102049.06
2019-02-16T21:28:18.634Z,102040.77
2019-02-16T21:30:53.881Z,102055.80
2019-02-16T21:33:26.487Z,102057.23
2019-02-16T21:36:07.799Z,102070.08
2019-02-16T21:38:51.292Z,102066.12
2019-02-16T21:41:32.401Z,102061.43
2019-02-16T21:44:07.714Z,102070.34
2019-02-16T21:46:46.261Z,102064.30
2019-02-16T21:49:39.371Z,102056.54
2019-02-16T21:52:18.855Z,102056.69
2019-02-16T21:55:00.757Z,102057.64
2019-02-16T21:57:39.205Z,102049.44
2019-02-16T22:00:24.306Z,102062.69
2019-02-16T22:02:58.467Z,102051.77
2019-02-16T22:05:49.510Z,102051.85
2019-02-16T22:08:31.139Z,102051.04
2019-02-16T22:11:12.458Z,102049.36
2019-02-16T22:13:43.350Z,102049.30
2019-02-16T22:16:17.264Z,102050.31
2019-02-16T22:18:51.647Z,102063.17
2019-02-16T22:21:22.619Z,102066.61
2019-02-16T22:23:56.264Z,102064.48
2019-02-16T22:26:27.199Z,102072.39
2019-02-16T22:28:58.094Z,102061.01
2019-02-16T22:31:29.105Z,102065.88
2019-02-16T22:34:00.006Z,102073.36
2019-02-16T22:36:30.959Z,102069.84
2019-02-16T22:39:01.858Z,102082.27
2019-02-16T22:41:39.124Z,102076.11
2019-02-16T22:44:10.055Z,102087.61
2019-02-16T22:46:41.578Z,102079.71
2019-02-16T22:49:12.578Z,102088.53
2019-02-16T22:51:45.040Z,102080.30
2019-02-16T22:54:16.010Z,102079.03
2019-02-16T22:56:46.932Z,102078.36
2019-02-16T22:59:17.838Z,102074.80
2019-02-16T23:01:48.771Z,102073.23
2019-02-16T23:04:19.671Z,102063.23
2019-02-16T23:06:52.156Z,102066.41
2019-02-16T23:09:24.691Z,102062.99
2019-02-16T23:11:57.147Z,102065.36
2019-02-16T23:14:28.314Z,102072.39
2019-02-16T23:17:02.122Z,102072.83
2019-02-16T23:19:35.698Z,102061.44
2019-02-16T23:22:06.725Z,102063.55
2019-02-16T23:24:37.589Z,102076.26
2019-02-16T23:27:08.529Z,102070.80
2019-02-16T23:29:39.428Z,102073.30
2019-02-16T23:32:10.359Z,102066.30
2019-02-16T23:34:41.267Z,102068.48
2019-02-16T23:37:12.211Z,102061.02
2019-02-16T23:39:43.111Z,102057.07
2019-02-16T23:42:14.058Z,102067.17
2019-02-16T23:44:47.960Z,102066.67
2019-02-16T23:47:18.887Z,102069.73
2019-02-16T23:49:55.526Z,102064.89
2019-02-16T23:52:26.507Z,102078.44
2019-02-16T23:54:57.411Z,102078.86
2019-02-16T23:57:28.350Z,102075.28
2019-02-16T23:59:59.247Z,102067.83
